Tiempo atmosférico en la estación meteorológica de Agulo, Santa Cruz de Tenerife (765 m.)



Fecha
DESCASC
Temp. máxima en grados centígrados (hora)
DESCASC
Temp. mínima en grados centígrados (hora)
DESCASC
Temp. media en grados centígrados
DESCASC
Racha de viento máxima en m/sg (hora)
DESCASC
Velocidad máxima media en intervalos de 10 minutos(hora)
DESCASC
Precipitaciones diarias en mm
DESCASC
Precipitaciones de 00:00 a 06:00 en mm
DESCASC
Precipitaciones de 06:00 a 12:00 en mm
DESCASC
Precipitaciones de 12:00 a 18:00 en mm
DESCASC
Precipitaciones de 18:00 a 24:00 en mm
DESCASC
31-03-2020 16.9 (17:10) 12.2 (00:00) 14.5 5.56 (03:20) 2.78 (03:20) 2.2 2 0.2 0 0
29-03-2020 17.3 (15:50) 8.9 (00:00) 13.1 5.56 (21:40) 3.33 (21:30) 0 0 0 0 0
28-03-2020 13.7 (14:50) 9.6 (00:00) 11.7 6.67 (04:10) 2.5 (00:30) 1.4 0 1.4 0 0
27-03-2020 18 (13:20) 9.7 (00:00) 13.8 10 (17:10) 6.39 (17:00) 3 0 0 0.4 2.6
26-03-2020 17.2 (14:40) 9.9 (00:00) 13.6 5.28 (19:40) 2.22 (01:50) 0 0 0 0 0
25-03-2020 14.3 (12:10) 10.2 (00:00) 12.3 5.28 (02:10) 3.06 (06:30) 1 0 0 1 0
24-03-2020 16.1 (16:30) 10.4 (00:00) 13.3 8.61 (01:00) 2.78 (00:30) 0.2 0.2 0 0 0
23-03-2020 11.5 (11:30) 9.2 (00:00) 10.3 14.72 (10:10) 5.83 (03:10) 9.2 4.4 3.8 1 0
22-03-2020 18.1 (13:50) 8.8 (05:40) 13.5 12.78 (23:59) 5.56 (15:50) 3 0.2 0 2.8 0
21-03-2020 14.4 (14:30) 9.3 (00:00) 11.8 9.17 (21:40) 3.33 (21:40) 0 0 0 0 0
20-03-2020 16.4 (14:10) 10.5 (00:00) 13.4 7.22 (00:50) 2.5 (06:20) 4.2 0 0 0 4.2
19-03-2020 13.2 (14:10) 10.6 (00:00) 11.9 9.17 (08:50) 3.89 (08:50) 1 0.2 0.8 0 0
18-03-2020 15.4 (14:00) 9 (00:00) 12.2 9.17 (03:10) 3.33 (05:10) 1 1 0 0 0
17-03-2020 13.4 (15:10) 9 (00:00) 11.2 9.17 (06:20) 3.61 (11:40) 1.8 0.2 0.4 0.2 1
16-03-2020 17.4 (14:00) 10.3 (00:00) 13.8 10.56 (01:10) 4.17 (07:50) 3.2 3.2 0 0 0
15-03-2020 14.6 (13:10) 10.2 (00:00) 12.4 8.33 (22:40) 3.06 (20:40) 0.6 0 0.2 0 0.4
14-03-2020 16.9 (14:50) 10.9 (00:00) 13.9 5.83 (01:40) 1.94 (09:30) 0 0 0 0 0
13-03-2020 14.1 (13:40) 11.8 (06:20) 13 5.83 (22:30) 1.94 (09:20) 0 0 0 0 0
12-03-2020 27.6 (13:00) 12.9 (00:00) 20.3 7.78 (12:20) 5.28 (12:20) 0 0 0 0 0
11-03-2020 26.3 (13:10) 15.7 (00:00) 21 10.28 (12:30) 5.83 (11:10) 0 0 0 0 0
10-03-2020 27.8 (13:50) 14.2 (00:00) 21 5.56 (06:10) 3.33 (22:30) 0 0 0 0 0
09-03-2020 23.8 (14:10) 11.5 (00:00) 17.6 8.89 (14:20) 5.56 (14:20) 0 0 0 0 0
08-03-2020 22.7 (15:40) 11.5 (00:00) 17.1 6.67 (15:20) 3.61 (15:20) 0 0 0 0 0
07-03-2020 14.7 (13:10) 10.6 (00:00) 12.7 6.11 (18:40) 2.5 (10:40) 0 0 0 0 0
06-03-2020 13.2 (13:30) 10.6 (00:00) 11.9 9.72 (01:10) 3.33 (06:40) 0.8 0.8 0 0 0
05-03-2020 18 (00:10) 12.1 (00:00) 15.1 7.5 (23:59) 2.5 (21:40) 0 0 0 0 0
04-03-2020 28.9 (17:50) 12.3 (06:20) 20.6 5.56 (22:50) 2.5 (18:30) 0 0 0 0 0

Gráficas

Temp. máximas Temp. mínimas Temp. medias Precipitaciones Rachas de viento máximas Velocidades máximas media en intervalos de 10 minutos

Datos horarios

Fecha y hora oficial Temperatura (ºC) Velocidad del viento (km/h) Dirección del viento Racha (km/h) Dirección de racha Precipitación (mm) Presión (hPa) Tendencia (hPa) Humedad (%)
2020-04-02 23:00:00 12.9 5 Norte 10 Sudeste 0 -- -- 96
2020-04-02 22:00:00 12.9 6 Sudeste 10 Sur 0 -- -- 95
2020-04-02 21:00:00 13.3 5 Sudeste 7 Sudeste 0 -- -- 94
2020-04-02 20:00:00 13.6 2 Nordeste 5 Norte 0 -- -- 92
2020-04-02 19:00:00 14.2 2 Sudoeste 12 Sur 0 -- -- 89
2020-04-02 18:00:00 14.7 4 Norte 13 Sudeste 0 -- -- 85
2020-04-02 17:00:00 15.7 5 Sudeste 13 Sudeste 0 -- -- 84
2020-04-02 16:00:00 16.3 6 Sudeste 14 Sudeste 0 -- -- 80
2020-04-02 15:00:00 16.6 5 Sudeste 15 Este 0 -- -- 82
2020-04-02 14:00:00 16.1 8 Este 14 Este 0 -- -- 82
2020-04-02 13:00:00 17.3 4 Sudeste 16 Este 0 -- -- 78
2020-04-02 12:00:00 16.3 7 Sudeste 17 Sur 0 -- -- 80
2020-04-02 11:00:00 16.3 4 Sudeste 13 Sudeste 0 -- -- 79
2020-04-02 10:00:00 13.9 4 Sur 10 Norte 0 -- -- 73
2020-04-02 09:00:00 11.5 5 Norte 15 Sudoeste 0 -- -- 83
2020-04-02 08:00:00 9.9 8 Sudoeste 12 Sudoeste 0 -- -- 93
2020-04-02 07:00:00 9.9 8 Sudoeste 12 Sudoeste 0 -- -- 93
2020-04-02 06:00:00 10.4 7 Sudoeste 12 Sudoeste 0 -- -- 93
2020-04-02 05:00:00 10.3 6 Sudoeste 11 Sudoeste 0 -- -- 92
2020-04-02 04:00:00 10.8 6 Sudoeste 10 Sudoeste 0 -- -- 94
2020-04-02 03:00:00 11.2 5 Sur 10 Sudoeste 0 -- -- 94
2020-04-02 02:00:00 11.5 0 Calma 9 Sudoeste 0 -- -- 96
2020-04-02 01:00:00 11.7 2 Oeste 7 Norte 0 -- -- 97
2020-04-02 00:00:00 12.3 0 Calma 8 Sudeste 0 -- -- 96
2020-04-01 23:00:00 12.5 0 Calma 8 Nordeste 0 -- -- 96
2020-04-01 22:00:00 12.6 2 Sudeste 9 Nordeste 0 -- -- 96
2020-04-01 21:00:00 12.8 4 Nordeste 8 Sudeste 0 -- -- 96
2020-04-01 20:00:00 13.5 3 Este 9 Sudeste 0 -- -- 94
2020-04-01 19:00:00 14.3 3 Sudeste 8 Este 0 -- -- 93
2020-04-01 18:00:00 14.6 2 Sudeste 10 Sudeste 0 -- -- 91
2020-04-01 17:00:00 16 5 Sudeste 15 Sudeste 0 -- -- 86
2020-04-01 16:00:00 16 6 Sudeste 12 Sudeste 0 -- -- 88
2020-04-01 15:00:00 14.6 4 Sudeste 10 Este 0 -- -- 94
2020-04-01 14:00:00 14.1 5 Sudeste 10 Este 0 -- -- 93
2020-04-01 13:00:00 14.7 4 Sudeste 12 Sudeste 0 -- -- 90
2020-04-01 12:00:00 15.9 4 Sudeste 17 Sudeste 0 -- -- 85
2020-04-01 11:00:00 14.6 6 Sudeste 12 Sur 0 -- -- 91
2020-04-01 10:00:00 13.4 3 Norte 6 Noroeste 0 -- -- 90
2020-04-01 09:00:00 10.5 3 Sudoeste 12 Sudoeste 0 -- -- 95
2020-04-01 08:00:00 10.5 4 Sudoeste 11 Sudoeste 0 -- -- 96
2020-04-01 07:00:00 10.5 3 Sudoeste 12 Sudoeste 0 -- -- 97
2020-04-01 06:00:00 10.7 6 Sudoeste 11 Sudoeste 0 -- -- 96
2020-04-01 05:00:00 10.6 2 Sur 9 Sudoeste 0 -- -- 97
2020-04-01 04:00:00 11.1 2 Nordeste 7 Nordeste 0 -- -- 97
2020-04-01 03:00:00 11.4 3 Sur 9 Este 0 -- -- 94
2020-04-01 02:00:00 12.1 2 Sudeste 9 Este 0 -- -- 97
2020-04-01 01:00:00 12.2 0 Calma 14 Este 0 -- -- 95
2020-04-01 00:00:00 12.4 3 Sur 9 Norte 0 -- -- 96
2020-03-31 23:00:00 12.6 2 Nordeste 10 Norte 0 -- -- 96
2020-03-31 22:00:00 12.6 3 Noroeste 12 Norte 0 -- -- 96
2020-03-31 21:00:00 12.5 6 Noroeste 12 Noroeste 0 -- -- 92
2020-03-31 20:00:00 13.3 5 Norte 13 Noroeste 0 -- -- 93
2020-03-31 19:00:00 14.3 3 Nordeste 10 Noroeste 0 -- -- 89
2020-03-31 18:00:00 15.5 5 Noroeste 11 Noroeste 0 -- -- 85
2020-03-31 17:00:00 16.2 6 Nordeste 14 Nordeste 0 -- -- 82
2020-03-31 16:00:00 15 3 Noroeste 9 Norte 0 -- -- 89
2020-03-31 15:00:00 14.6 2 Noroeste 11 Noroeste 0 -- -- 94
2020-03-31 14:00:00 14.8 4 Norte 11 Sudoeste 0 -- -- 91
2020-03-31 13:00:00 15.3 4 Sur 13 Sudeste 0 -- -- 93
2020-03-31 12:00:00 14.8 4 Sudeste 11 Norte 0 -- -- 94
2020-03-31 11:00:00 13.5 4 Norte 10 Nordeste 0 -- -- 98
2020-03-31 10:00:00 13 3 Nordeste 10 Norte 0 -- -- 99
2020-03-31 09:00:00 12.5 2 Sur 12 Noroeste 0.2 -- -- 99
2020-03-31 08:00:00 12.3 3 Norte 12 Norte 0 -- -- 99
2020-03-31 07:00:00 12.7 4 Norte 9 Norte 0 -- -- 99
2020-03-31 06:00:00 12.6 7 Noroeste 12 Norte 0.2 -- -- 99
2020-03-31 05:00:00 12.8 4 Noroeste 8 Oeste 0.6 -- -- 98
2020-03-31 04:00:00 12.6 4 Norte 20 Noroeste 1 -- -- 97
2020-03-31 03:00:00 12.6 5 Oeste 10 Sur 0.2 -- -- 97
2020-03-31 02:00:00 12.4 3 Noroeste 13 Norte 0 -- -- 96
2020-03-31 01:00:00 12.4 4 Norte 15 Noroeste 0 -- -- 95
2020-03-31 00:00:00 12.2 5 Norte 20 Noroeste 0 -- -- 91
2020-03-30 23:00:00 12.7 13 Noroeste 28 Noroeste 0 -- -- 91
2020-03-30 22:00:00 12.9 13 Noroeste 37 Noroeste 0 -- -- 90
2020-03-30 21:00:00 13.4 19 Noroeste 37 Noroeste 0 -- -- 90
2020-03-30 20:00:00 14.6 16 Noroeste 29 Noroeste 0 -- -- 84
2020-03-30 19:00:00 17.8 8 Noroeste 28 Noroeste 0 -- -- 72
2020-03-30 18:00:00 17.8 16 Noroeste 28 Noroeste 0 -- -- 71
2020-03-30 17:00:00 17.2 10 Noroeste 27 Noroeste 0 -- -- 74
2020-03-30 16:00:00 16.8 7 Norte 15 Noroeste 0 -- -- 77
2020-03-30 15:00:00 17.6 5 Sudeste 15 Sudeste 0 -- -- 75
2020-03-30 14:00:00 18.7 7 Sudeste 14 Sur 0 -- -- 69
2020-03-30 13:00:00 18.1 7 Sudeste 19 Sudeste 0 -- -- 73
2020-03-30 12:00:00 17.1 6 Sur 17 Sur 0 -- -- 75
2020-03-30 11:00:00 15.6 9 Sur 16 Sudeste 0 -- -- 81
2020-03-30 10:00:00 13.9 9 Sudeste 14 Sudeste 0 -- -- 87
2020-03-30 09:00:00 11.3 6 Sur 13 Sudoeste 0 -- -- 87
2020-03-30 08:00:00 10.5 7 Noroeste 13 Norte 0 -- -- 98
2020-03-30 07:00:00 10.2 5 Sudoeste 9 Norte 0 -- -- 96
2020-03-30 06:00:00 11.1 4 Noroeste 6 Sudoeste 0 -- -- 96
2020-03-30 05:00:00 10.8 5 Sudoeste 9 Sudoeste 0 -- -- 94
2020-03-30 04:00:00 10.8 3 Sur 9 Sudoeste 0 -- -- 93
2020-03-30 03:00:00 10.8 2 Nordeste 10 Noroeste 0 -- -- 93
2020-03-30 02:00:00 11.1 6 Noroeste 10 Noroeste 0 -- -- 89
2020-03-30 01:00:00 10.9 6 Sudoeste 12 Sudoeste 0 -- -- 74
2020-03-30 00:00:00 10.9 4 Oeste 15 Oeste 0 -- -- 82
2020-03-29 23:00:00 10.9 8 Oeste 14 Noroeste 0 -- -- 90
2020-03-29 22:00:00 11.2 8 Noroeste 20 Noroeste 0 -- -- 92
2020-03-29 21:00:00 11.9 8 Noroeste 11 Noroeste 0 -- -- 88
2020-03-29 20:00:00 14.2 5 Sur 13 Sudeste 0 -- -- 81
2020-03-29 19:00:00 14.5 5 Sudeste 14 Sudeste 0 -- -- 80
2020-03-29 18:00:00 14.9 3 Sur 10 Sudeste 0 -- -- 82
2020-03-29 17:00:00 16.8 5 Sur 14 Sudeste 0 -- -- 74
2020-03-29 16:00:00 17.2 7 Sudeste 16 Este 0 -- -- 71
2020-03-29 15:00:00 16 5 Sudeste 15 Sudeste 0 -- -- 75
2020-03-29 14:00:00 16.6 5 Sudeste 17 Sur 0 -- -- 73
2020-03-29 13:00:00 16.5 6 Sur 15 Sudeste 0 -- -- 72
2020-03-29 12:00:00 15.9 7 Sur 15 Sudeste 0 -- -- 75
2020-03-29 11:00:00 14.3 5 Sur 11 Sudeste 0 -- -- 79
2020-03-29 10:00:00 12.5 2 Este 6 Sudoeste 0 -- -- 80
2020-03-29 09:00:00 9.9 6 Sudoeste 9 Sudoeste 0 -- -- 89
2020-03-29 08:00:00 9 3 Sudoeste 9 Sudoeste 0 -- -- 94
2020-03-29 07:00:00 9.2 5 Sudoeste 8 Sudoeste 0 -- -- 96
2020-03-29 06:00:00 9.6 4 Sudoeste 6 Norte 0 -- -- 99
2020-03-29 05:00:00 10.1 4 Noroeste 6 Norte 0 -- -- 99
2020-03-29 04:00:00 9.8 0 Calma 6 Sudoeste 0 -- -- 97
2020-03-29 00:00:00 10.7 4 Norte 6 Noroeste 0 -- -- 98
2020-03-28 23:00:00 10.6 5 Noroeste 7 Noroeste 0 -- -- 97
2020-03-28 22:00:00 10.8 4 Norte 6 Noroeste 0 -- -- 97
2020-03-28 21:00:00 11 3 Sudoeste 6 Norte 0 -- -- 96
2020-03-28 20:00:00 11.8 0 Calma 6 Sudeste 0 -- -- 95
2020-03-28 19:00:00 12.2 2 Sudeste 8 Este 0 -- -- 94
2020-03-28 18:00:00 12.5 4 Sur 13 Sudeste 0 -- -- 93
2020-03-28 17:00:00 12.8 5 Este 14 Sudeste 0 -- -- 91
2020-03-28 16:00:00 13.1 4 Sudeste 13 Sudeste 0 -- -- 90
2020-03-28 15:00:00 13.7 4 Este 14 Este 0 -- -- 85
2020-03-28 14:00:00 13.3 4 Este 14 Oeste 0 -- -- 88
2020-03-28 13:00:00 13 5 Noroeste 15 Sudeste 0 -- -- 88
2020-03-28 12:00:00 13.3 4 Norte 13 Norte 0 -- -- 91
2020-03-28 11:00:00 12.8 6 Sudeste 17 Este 0 -- -- 95
2020-03-28 10:00:00 12 4 Este 17 Este 0 -- -- 99
2020-03-28 09:00:00 10.9 8 Nordeste 20 Nordeste 1.4 -- -- 98
2020-03-28 08:00:00 10.5 4 Este 11 Nordeste 0 -- -- 98
2020-03-28 07:00:00 9.8 4 Nordeste 16 Noroeste 0 -- -- 99
2020-03-28 06:00:00 9.9 4 Nordeste 22 Noroeste 0 -- -- 99
2020-03-28 05:00:00 9.8 7 Norte 24 Norte 0 -- -- 100
2020-03-28 04:00:00 10 7 Nordeste 19 Noroeste 0 -- -- 100
2020-03-28 03:00:00 10.1 6 Norte 17 Noroeste 0 -- -- 100
2020-03-28 02:00:00 10.1 8 Norte 17 Norte 0 -- -- 100
2020-03-28 01:00:00 10.4 6 Nordeste 23 Norte 0 -- -- 100
2020-03-28 00:00:00 10.6 6 Norte 33 Norte 0 -- -- 100
2020-03-27 23:00:00 10.5 9 Norte 31 Norte 0 -- -- 100
2020-03-27 22:00:00 10.8 10 Norte 31 Norte 0.2 -- -- 100
2020-03-27 21:00:00 10.9 7 Oeste 30 Nordeste 0 -- -- 100
2020-03-27 20:00:00 11 6 Norte 35 Noroeste 1 -- -- 99
2020-03-27 19:00:00 11.7 8 Norte 23 Norte 1.4 -- -- 98
2020-03-27 18:00:00 12 7 Nordeste 36 Noroeste 0.4 -- -- 93
2020-03-27 17:00:00 14.6 23 Noroeste 34 Noroeste 0 -- -- 70
2020-03-27 16:00:00 17.5 7 Norte 21 Norte 0 -- -- 67
2020-03-27 15:00:00 15.1 8 Norte 19 Nordeste 0 -- -- 79
2020-03-27 14:00:00 17.7 8 Norte 21 Norte 0 -- -- 68
2020-03-27 13:00:00 16.5 9 Norte 21 Noroeste 0 -- -- 65
2020-03-27 12:00:00 16.4 8 Norte 21 Nordeste 0 -- -- 65
2020-03-27 11:00:00 15.5 8 Nordeste 19 Norte 0 -- -- 71
2020-03-27 10:00:00 14.4 8 Nordeste 22 Norte 0 -- -- 79
2020-03-27 09:00:00 12.3 7 Norte 18 Noroeste 0 -- -- 91
2020-03-27 08:00:00 10.9 8 Norte 20 Noroeste 0 -- -- 98
2020-03-27 07:00:00 10 8 Norte 14 Norte 0 -- -- 98
2020-03-27 06:00:00 9.9 5 Norte 14 Noroeste 0 -- -- 97
2020-03-27 05:00:00 10.2 5 Norte 12 Norte 0 -- -- 97
2020-03-27 04:00:00 10.5 4 Norte 12 Noroeste 0 -- -- 97
2020-03-27 03:00:00 10.4 5 Norte 9 Norte 0 -- -- 97
2020-03-27 02:00:00 10.5 3 Norte 11 Noroeste 0 -- -- 96
2020-03-27 01:00:00 10.4 2 Norte 8 Nordeste 0 -- -- 94
2020-03-27 00:00:00 10.6 3 Este 12 Norte 0 -- -- 93
2020-03-26 23:00:00 10.8 4 Nordeste 12 Norte 0 -- -- 94
2020-03-26 22:00:00 11 4 Norte 10 Noroeste 0 -- -- 93
2020-03-26 21:00:00 11.1 4 Norte 14 Nordeste 0 -- -- 92
2020-03-26 20:00:00 11.4 5 Nordeste 19 Nordeste 0 -- -- 92
2020-03-26 19:00:00 12.2 4 Este 18 Norte 0 -- -- 89
2020-03-26 18:00:00 13 4 Norte 14 Norte 0 -- -- 80
2020-03-26 17:00:00 15.1 7 Norte 17 Norte 0 -- -- 70
2020-03-26 16:00:00 16.8 6 Noroeste 17 Sudoeste 0 -- -- 60
2020-03-26 15:00:00 16.9 5 Este 17 Norte 0 -- -- 55
2020-03-26 14:00:00 16.7 4 Oeste 12 Noroeste 0 -- -- 69
2020-03-26 13:00:00 15 6 Norte 14 Noroeste 0 -- -- 77
2020-03-26 12:00:00 12.6 4 Nordeste 10 Sudeste 0 -- -- 90
2020-03-26 11:00:00 13.6 4 Este 14 Este 0 -- -- 86
2020-03-26 10:00:00 12 3 Este 11 Sudeste 0 -- -- 93
2020-03-26 09:00:00 11.1 6 Sur 10 Sudeste 0 -- -- 100
2020-03-26 08:00:00 10 5 Sudoeste 11 Sudoeste 0 -- -- 100
2020-03-26 07:00:00 10.3 3 Norte 10 Norte 0 -- -- 100
2020-03-26 06:00:00 10.5 4 Norte 8 Norte 0 -- -- 100
2020-03-26 05:00:00 10 2 Norte 9 Noroeste 0 -- -- 100
2020-03-26 04:00:00 10.1 6 Noroeste 9 Noroeste 0 -- -- 99
2020-03-26 03:00:00 10.2 2 Sudoeste 11 Sudeste 0 -- -- 99
2020-03-26 02:00:00 10.9 8 Sudeste 14 Este 0 -- -- 99
2020-03-26 01:00:00 11 3 Sudeste 10 Nordeste 0 -- -- 99
2020-03-26 00:00:00 10.8 5 Este 9 Nordeste 0 -- -- 98
2020-03-25 23:00:00 10.9 5 Este 10 Norte 0 -- -- 98
2020-03-25 22:00:00 10.9 2 Sudeste 6 Este 0 -- -- 98
2020-03-25 21:00:00 11.2 2 Sudeste 8 Sudeste 0 -- -- 98
2020-03-25 20:00:00 11.3 4 Este 12 Sudeste 0 -- -- 98
2020-03-25 19:00:00 11.5 4 Este 14 Este 0 -- -- 97
2020-03-25 18:00:00 11.8 6 Sudeste 18 Sudeste 1 -- -- 96
2020-03-25 17:00:00 12.2 3 Este 13 Nordeste 0 -- -- 94
2020-03-25 16:00:00 12.8 4 Sudeste 15 Este 0 -- -- 89
2020-03-25 15:00:00 13.1 4 Este 12 Este 0 -- -- 85
2020-03-25 14:00:00 13.6 5 Este 12 Nordeste 0 -- -- 84
2020-03-25 13:00:00 13.8 4 Nordeste 10 Sudoeste 0 -- -- 79
2020-03-25 12:00:00 13.9 4 Sudeste 15 Sudeste 0 -- -- 74
2020-03-25 11:00:00 13.9 6 Sudeste 13 Sudeste 0 -- -- 78
2020-03-25 10:00:00 11.8 4 Sudeste 11 Sudeste 0 -- -- 95
2020-03-25 09:00:00 11.4 5 Sudeste 11 Este 0 -- -- 99
2020-03-25 08:00:00 11 2 Sur 13 Sudeste 0 -- -- 99
2020-03-25 07:00:00 10.8 4 Sudeste 18 Sudeste 0 -- -- 98
2020-03-25 06:00:00 10.6 3 Sudoeste 14 Norte 0 -- -- 97
2020-03-25 05:00:00 10.2 4 Norte 12 Nordeste 0 -- -- 98
2020-03-25 04:00:00 10.8 4 Sudeste 12 Nordeste 0 -- -- 99
2020-03-25 03:00:00 10.7 4 Este 19 Nordeste 0 -- -- 99
2020-03-25 02:00:00 11.2 6 Este 17 Este 0 -- -- 99
2020-03-25 01:00:00 11.2 4 Sudeste 18 Este 0 -- -- 99
2020-03-25 00:00:00 10.9 3 Sudeste 13 Este 0 -- -- 98
2020-03-24 23:00:00 11 2 Sur 10 Este 0 -- -- 97
2020-03-24 22:00:00 11 4 Sur 10 Sur 0 -- -- 96
2020-03-24 21:00:00 10.9 4 Sur 15 Este 0 -- -- 94
2020-03-24 20:00:00 10.7 4 Sudoeste 13 Nordeste 0 -- -- 93
2020-03-24 19:00:00 11.5 6 Nordeste 17 Norte 0 -- -- 89
2020-03-24 18:00:00 12.3 8 Norte 22 Norte 0 -- -- 91
2020-03-24 17:00:00 14.5 7 Norte 21 Noroeste 0 -- -- 82
2020-03-24 16:00:00 15.8 6 Noroeste 17 Norte 0 -- -- 80
2020-03-24 15:00:00 12.9 6 Oeste 24 Norte 0 -- -- 94
2020-03-24 14:00:00 13.9 8 Noroeste 19 Norte 0 -- -- 89
2020-03-24 13:00:00 13.1 8 Norte 23 Noroeste 0 -- -- 94
2020-03-24 12:00:00 12.9 6 Sudoeste 14 Noroeste 0 -- -- 98
2020-03-24 11:00:00 12.4 6 Sudoeste 23 Este 0 -- -- 100
2020-03-24 10:00:00 11.5 6 Sudoeste 20 Sur 0 -- -- 100
2020-03-24 09:00:00 11.3 7 Sur 23 Este 0 -- -- 100
2020-03-24 08:00:00 10.9 5 Sur 23 Sudeste 0 -- -- 100
2020-03-24 07:00:00 10.7 6 Sudoeste 23 Norte 0 -- -- 100
2020-03-24 06:00:00 10.9 9 Sur 24 Sur 0 -- -- 100
2020-03-24 05:00:00 10.9 7 Sur 25 Noroeste 0 -- -- 100
2020-03-24 04:00:00 10.8 8 Sur 26 Sudeste 0 -- -- 100
2020-03-24 03:00:00 10.9 8 Sudoeste 24 Sur 0 -- -- 100
2020-03-24 02:00:00 10.6 6 Sudoeste 28 Noroeste 0.2 -- -- 100
2020-03-24 01:00:00 10.9 10 Sudoeste 31 Nordeste 0 -- -- 100
2020-03-24 00:00:00 11 10 Sudoeste 38 Norte 0 -- -- 100
2020-03-23 23:00:00 10.9 9 Sudoeste 34 Sur 0 -- -- 99
2020-03-23 22:00:00 10.5 8 Sudoeste 34 Sudeste 0 -- -- 99
2020-03-23 21:00:00 10.7 12 Sur 34 Oeste 0 -- -- 99
2020-03-23 20:00:00 10.6 9 Sudoeste 28 Noroeste 0 -- -- 99
2020-03-23 19:00:00 10.8 11 Sudoeste 29 Sur 0 -- -- 99
2020-03-23 18:00:00 10.8 10 Sur 29 Sudoeste 0 -- -- 99
2020-03-23 17:00:00 10.9 11 Sudoeste 34 Nordeste 0 -- -- 100
2020-03-23 16:00:00 11 10 Sur 34 Sudoeste 0 -- -- 100
2020-03-23 15:00:00 10.8 10 Sudoeste 36 Norte 0.2 -- -- 100
2020-03-23 14:00:00 10.4 13 Nordeste 40 Noroeste 0.6 -- -- 99
2020-03-23 13:00:00 10.4 9 Sudoeste 35 Nordeste 0.2 -- -- 99
2020-03-23 12:00:00 11.2 10 Sur 41 Este 0.4 -- -- 95
2020-03-23 11:00:00 10.5 13 Sur 53 Norte 0 -- -- 99
2020-03-23 10:00:00 10.1 19 Nordeste 43 Norte 0.2 -- -- 99
2020-03-23 09:00:00 10.2 10 Norte 46 Norte 2.2 -- -- 100
2020-03-23 08:00:00 9.6 12 Noroeste 34 Noroeste 0.6 -- -- 100
2020-03-23 07:00:00 9.2 15 Norte 45 Nordeste 0.4 -- -- 99
2020-03-23 06:00:00 9.2 12 Norte 41 Norte 0 -- -- 100
2020-03-23 05:00:00 9.5 16 Norte 49 Norte 0.4 -- -- 100
2020-03-23 04:00:00 9.5 14 Nordeste 50 Noroeste 2.2 -- -- 100
2020-03-23 03:00:00 9.5 14 Norte 47 Norte 1.8 -- -- 99
2020-03-23 02:00:00 9.7 18 Norte 46 Norte 0 -- -- 94
2020-03-23 01:00:00 10 17 Nordeste 50 Norte 0 -- -- 94
2020-03-23 00:00:00 10.3 19 Norte 46 Norte 0 -- -- 96
2020-03-22 23:00:00 10.5 17 Norte 43 Norte 0 -- -- 95
2020-03-22 22:00:00 10.5 18 Norte 41 Nordeste 0 -- -- 98
2020-03-22 21:00:00 10.1 13 Norte 44 Norte 0 -- -- 98
2020-03-22 20:00:00 10.5 18 Norte 45 Norte 0 -- -- 93
2020-03-22 19:00:00 10.5 11 Norte 38 Norte 0 -- -- 95
2020-03-22 18:00:00 10.5 14 Nordeste 41 Norte 0 -- -- 99
2020-03-22 17:00:00 10.7 11 Nordeste 36 Norte 1.6 -- -- 98
2020-03-22 16:00:00 12.2 14 Norte 44 Noroeste 1.2 -- -- 92
2020-03-22 15:00:00 14.3 19 Noroeste 36 Norte 0 -- -- 74
2020-03-22 14:00:00 17.7 9 Norte 28 Nordeste 0 -- -- 60
2020-03-22 13:00:00 17.4 12 Noroeste 31 Norte 0 -- -- 57
2020-03-22 12:00:00 15.5 11 Nordeste 30 Noroeste 0 -- -- 65
2020-03-22 11:00:00 13.4 10 Norte 27 Noroeste 0 -- -- 82
2020-03-22 10:00:00 11.3 6 Nordeste 28 Norte 0 -- -- 94
2020-03-22 09:00:00 10.6 10 Norte 24 Norte 0 -- -- 97
2020-03-22 08:00:00 9.6 7 Nordeste 23 Noroeste 0 -- -- 99
2020-03-22 07:00:00 9.4 8 Norte 32 Norte 0 -- -- 98
2020-03-22 06:00:00 8.8 6 Norte 25 Nordeste 0 -- -- 97
2020-03-22 05:00:00 9.3 6 Nordeste 21 Norte 0.2 -- -- 97
2020-03-22 04:00:00 9.9 6 Este 21 Norte 0 -- -- 89
2020-03-22 03:00:00 9.7 5 Oeste 30 Oeste 0 -- -- 84
2020-03-22 02:00:00 10 9 Sudoeste 20 Este 0 -- -- 88
2020-03-22 01:00:00 9.6 6 Norte 25 Norte 0 -- -- 87
2020-03-22 00:00:00 9.9 9 Norte 27 Nordeste 0 -- -- 81
2020-03-21 23:00:00 10.1 9 Noroeste 30 Sudeste 0 -- -- 81
2020-03-21 22:00:00 10.2 11 Nordeste 33 Nordeste 0 -- -- 81
2020-03-21 21:00:00 10.4 8 Sudoeste 29 Sudoeste 0 -- -- 90
2020-03-21 20:00:00 10.6 7 Sur 26 Este 0 -- -- 91
2020-03-21 19:00:00 10.8 7 Sudeste 19 Sudeste 0 -- -- 87
2020-03-21 18:00:00 11.6 5 Sudeste 17 Nordeste 0 -- -- 78
2020-03-21 17:00:00 12.2 4 Oeste 13 Este 0 -- -- 83
2020-03-21 16:00:00 13.6 4 Sudeste 17 Nordeste 0 -- -- 73
2020-03-21 15:00:00 13.5 6 Este 18 Sur 0 -- -- 72
2020-03-21 14:00:00 13.7 5 Sur 18 Sur 0 -- -- 73
2020-03-21 13:00:00 13.9 6 Sur 18 Sur 0 -- -- 74
2020-03-21 12:00:00 13.3 6 Sur 18 Este 0 -- -- 67
2020-03-21 11:00:00 12.3 5 Este 18 Este 0 -- -- 74
2020-03-21 10:00:00 11 7 Sudeste 21 Este 0 -- -- 86
2020-03-21 09:00:00 10.2 8 Sudeste 20 Sudeste 0 -- -- 94
2020-03-21 08:00:00 9.6 6 Sur 17 Nordeste 0 -- -- 92
2020-03-21 07:00:00 9.3 6 Sudeste 18 Sudeste 0 -- -- 92
2020-03-21 06:00:00 9.5 7 Sur 15 Sudeste 0 -- -- 96
2020-03-21 05:00:00 9.4 5 Sur 15 Sudeste 0 -- -- 99
2020-03-21 04:00:00 9.4 7 Sur 14 Sudeste 0 -- -- 100
2020-03-21 03:00:00 9.9 6 Sur 13 Sur 0 -- -- 100
2020-03-21 02:00:00 10 6 Sudeste 16 Sur 0 -- -- 100
2020-03-21 01:00:00 11.1 6 Sudoeste 24 Este 0 -- -- 100
2020-03-21 00:00:00 11.5 8 Sudeste 19 Sudeste 0.4 -- -- 100
2020-03-20 23:00:00 11.4 6 Sur 21 Nordeste 0.8 -- -- 100
2020-03-20 22:00:00 11.3 4 Sur 13 Sudoeste 0.4 -- -- 100
2020-03-20 21:00:00 11.3 4 Sur 22 Este 0.8 -- -- 100
2020-03-20 20:00:00 11.5 5 Sur 18 Nordeste 1.8 -- -- 100
2020-03-20 19:00:00 11.7 7 Sudeste 18 Este 0 -- -- 99
2020-03-20 18:00:00 11.7 5 Sudoeste 16 Este 0 -- -- 97
2020-03-20 17:00:00 12.4 5 Sudeste 22 Oeste 0 -- -- 96
2020-03-20 16:00:00 14 5 Este 17 Sudeste 0 -- -- 83
2020-03-20 15:00:00 16.1 7 Sur 19 Este 0 -- -- 73
2020-03-20 14:00:00 15.7 5 Sudeste 21 Sudeste 0 -- -- 75
2020-03-20 13:00:00 14.9 5 Sur 19 Sudeste 0 -- -- 79
2020-03-20 12:00:00 14.2 4 Nordeste 19 Este 0 -- -- 83
2020-03-20 11:00:00 12.3 6 Sur 19 Este 0 -- -- 99
2020-03-20 10:00:00 11.7 5 Sur 15 Este 0 -- -- 100
2020-03-20 09:00:00 11.1 5 Este 16 Nordeste 0 -- -- 100
2020-03-20 08:00:00 11 5 Sur 17 Nordeste 0 -- -- 100
2020-03-20 07:00:00 10.5 7 Sur 22 Sudoeste 0 -- -- 100
2020-03-20 06:00:00 11.1 7 Sudeste 20 Sudoeste 0 -- -- 100
2020-03-20 05:00:00 10.9 6 Sur 14 Sudoeste 0 -- -- 100
2020-03-20 04:00:00 11.3 5 Sur 15 Sudeste 0 -- -- 100
2020-03-20 03:00:00 11.2 6 Sur 19 Este 0 -- -- 100
2020-03-20 02:00:00 11.5 6 Sudeste 23 Sur 0 -- -- 100
2020-03-20 01:00:00 12 7 Sur 26 Nordeste 0 -- -- 100
2020-03-20 00:00:00 12 8 Sudeste 22 Sudeste 0 -- -- 100
2020-03-19 23:00:00 12.3 6 Sudeste 23 Sudeste 0 -- -- 100
2020-03-19 22:00:00 12.4 9 Sudeste 25 Norte 0 -- -- 100
2020-03-19 21:00:00 12.5 8 Sur 30 Sudeste 0 -- -- 100
2020-03-19 20:00:00 12.5 8 Sudeste 24 Este 0 -- -- 100
2020-03-19 19:00:00 12.6 7 Sur 21 Este 0 -- -- 100
2020-03-19 18:00:00 12.7 9 Sur 24 Nordeste 0 -- -- 100
2020-03-19 17:00:00 12.7 10 Sur 24 Sudeste 0 -- -- 100
2020-03-19 16:00:00 12.9 9 Sudeste 26 Este 0 -- -- 100
2020-03-19 15:00:00 13.1 9 Sur 30 Sudeste 0 -- -- 100
2020-03-19 14:00:00 13.1 10 Sur 26 Sudeste 0 -- -- 100
2020-03-19 13:00:00 13 10 Sur 25 Sudeste 0 -- -- 100
2020-03-19 12:00:00 12.9 11 Sur 27 Nordeste 0 -- -- 100
2020-03-19 11:00:00 12.6 8 Sur 24 Noroeste 0 -- -- 100
2020-03-19 10:00:00 12.2 9 Sudoeste 28 Sudeste 0.2 -- -- 100
2020-03-19 09:00:00 11.6 10 Sudoeste 33 Noroeste 0.6 -- -- 100
2020-03-19 08:00:00 11.3 9 Sur 24 Sudeste 0 -- -- 100
2020-03-19 07:00:00 11.2 11 Sudoeste 25 Sur 0 -- -- 100
2020-03-19 06:00:00 11.5 8 Sudeste 24 Sudoeste 0 -- -- 100
2020-03-19 05:00:00 11.3 7 Sur 25 Norte 0 -- -- 100
2020-03-19 04:00:00 10.9 8 Sudoeste 23 Sur 0.2 -- -- 99
2020-03-19 03:00:00 10.8 10 Sudoeste 32 Sur 0 -- -- 96
2020-03-19 02:00:00 10.8 6 Oeste 23 Este 0 -- -- 93
2020-03-19 01:00:00 10.6 9 Sudoeste 19 Sur 0 -- -- 92
2020-03-19 00:00:00 10.9 8 Sur 22 Este 0 -- -- 96
2020-03-18 23:00:00 10.9 9 Sudoeste 20 Sur 0 -- -- 94
2020-03-18 22:00:00 10.8 6 Sudoeste 24 Noroeste 0 -- -- 93
2020-03-18 21:00:00 11.1 9 Sudoeste 23 Sudoeste 0 -- -- 96
2020-03-18 20:00:00 11.1 8 Sudoeste 21 Sudoeste 0 -- -- 92
2020-03-18 19:00:00 11.3 7 Sudoeste 25 Sudoeste 0 -- -- 87
2020-03-18 18:00:00 11.8 9 Sudoeste 30 Nordeste 0 -- -- 86
2020-03-18 17:00:00 12.5 12 Sudoeste 25 Sur 0 -- -- 84
2020-03-18 16:00:00 13.6 9 Sudoeste 22 Sudoeste 0 -- -- 76
2020-03-18 15:00:00 13.1 10 Sudoeste 24 Sur 0 -- -- 77
2020-03-18 14:00:00 15.4 8 Sur 20 Sudeste 0 -- -- 74
2020-03-18 13:00:00 13.4 5 Sudoeste 22 Sur 0 -- -- 80
2020-03-18 12:00:00 12.3 10 Sur 20 Sudeste 0 -- -- 88
2020-03-18 11:00:00 12.1 6 Este 21 Sudeste 0 -- -- 99
2020-03-18 10:00:00 10.1 4 Sudoeste 24 Este 0 -- -- 99
2020-03-18 09:00:00 9.9 7 Sudoeste 18 Sur 0 -- -- 100
2020-03-18 08:00:00 9.9 8 Sur 22 Este 0 -- -- 99
2020-03-18 07:00:00 9.6 8 Sur 21 Este 0 -- -- 98
2020-03-18 06:00:00 9.1 7 Sur 25 Sudeste 0 -- -- 100
2020-03-18 05:00:00 9.8 10 Sur 24 Este 0 -- -- 100
2020-03-18 04:00:00 9.6 9 Sudeste 33 Nordeste 0.8 -- -- 100
2020-03-18 03:00:00 9.9 8 Sudeste 23 Este 0 -- -- 100
2020-03-18 02:00:00 9.7 6 Sur 24 Este 0.2 -- -- 100
2020-03-18 01:00:00 9.8 9 Sudeste 23 Sudeste 0 -- -- 100
2020-03-18 00:00:00 9.5 7 Sur 29 Sudeste 0 -- -- 100
2020-03-17 23:00:00 9.7 7 Sudeste 24 Sur 0 -- -- 100
2020-03-17 22:00:00 10.4 11 Sur 22 Nordeste 0.2 -- -- 100
2020-03-17 21:00:00 10.1 6 Sur 28 Sudeste 0.8 -- -- 99
2020-03-17 20:00:00 10.3 9 Sudeste 24 Este 0 -- -- 99
2020-03-17 19:00:00 10.6 9 Sudeste 22 Sudeste 0 -- -- 98
2020-03-17 18:00:00 10.8 7 Sudeste 21 Sudeste 0.2 -- -- 97
2020-03-17 17:00:00 11.7 8 Sudeste 20 Este 0 -- -- 95
2020-03-17 16:00:00 11.6 6 Sudeste 27 Sudeste 0 -- -- 94
2020-03-17 15:00:00 13 8 Este 28 Este 0 -- -- 87
2020-03-17 14:00:00 13.2 10 Sudeste 24 Este 0 -- -- 85
2020-03-17 13:00:00 12.7 10 Este 27 Este 0 -- -- 92
2020-03-17 12:00:00 12 9 Sudeste 29 Este 0 -- -- 97
2020-03-17 11:00:00 10.8 5 Sudeste 32 Este 0 -- -- 100
2020-03-17 10:00:00 10.1 10 Este 28 Este 0 -- -- 100
2020-03-17 09:00:00 9.3 7 Sudeste 28 Sudeste 0.4 -- -- 100
2020-03-17 08:00:00 9.4 7 Sudeste 33 Este 0 -- -- 100
2020-03-17 07:00:00 9.3 8 Este 33 Nordeste 0 -- -- 99
2020-03-17 06:00:00 9.3 9 Sudeste 29 Este 0 -- -- 97
2020-03-17 05:00:00 9.9 13 Sudeste 30 Este 0 -- -- 97
2020-03-17 04:00:00 9.7 8 Sudeste 23 Este 0.2 -- -- 97
2020-03-17 03:00:00 10 13 Este 31 Sudeste 0 -- -- 98
2020-03-17 02:00:00 10.3 12 Sudeste 26 Nordeste 0 -- -- 97
2020-03-17 01:00:00 10.4 10 Sudeste 23 Sur 0 -- -- 95
2020-03-17 00:00:00 10.4 9 Sudeste 25 Este 0 -- -- 98
2020-03-16 23:00:00 10.8 12 Sudeste 29 Este 0 -- -- 100
2020-03-16 22:00:00 10.8 12 Sudeste 30 Este 0 -- -- 99
2020-03-16 21:00:00 11.1 8 Sudeste 24 Nordeste 0 -- -- 99
2020-03-16 20:00:00 11.4 9 Sudeste 28 Nordeste 0 -- -- 99
2020-03-16 19:00:00 11.6 7 Este 30 Este 0 -- -- 98
2020-03-16 18:00:00 11.9 8 Sudeste 24 Este 0 -- -- 97
2020-03-16 17:00:00 12.3 10 Sudeste 26 Nordeste 0 -- -- 96
2020-03-16 16:00:00 13.5 9 Sur 23 Sudeste 0 -- -- 87
2020-03-16 15:00:00 15.4 6 Sur 18 Sudeste 0 -- -- 77
2020-03-16 14:00:00 17.4 7 Sudeste 30 Sudeste 0 -- -- 68
2020-03-16 13:00:00 15.9 13 Sudeste 36 Nordeste 0 -- -- 67
2020-03-16 12:00:00 14.3 12 Este 32 Nordeste 0 -- -- 79
2020-03-16 11:00:00 12.6 11 Este 33 Este 0 -- -- 86
2020-03-16 10:00:00 12.4 9 Este 29 Sudeste 0 -- -- 89
2020-03-16 09:00:00 10.9 12 Este 31 Este 0 -- -- 100
2020-03-16 08:00:00 10.7 11 Sudeste 35 Este 0 -- -- 100
2020-03-16 07:00:00 10.5 11 Sudeste 26 Este 0 -- -- 100
2020-03-16 06:00:00 10.6 10 Sudeste 32 Nordeste 0.2 -- -- 100
2020-03-16 05:00:00 11 12 Este 35 Este 0.4 -- -- 100
2020-03-16 04:00:00 11.1 6 Este 19 Nordeste 0 -- -- 100
2020-03-16 03:00:00 10.7 5 Sudeste 23 Este 0.2 -- -- 100
2020-03-16 02:00:00 11 10 Este 38 Sudeste 2 -- -- 100
2020-03-16 01:00:00 11.1 7 Sudeste 23 Este 0.4 -- -- 99
2020-03-16 00:00:00 10.9 5 Este 21 Este 0 -- -- 99
2020-03-15 23:00:00 10.8 7 Sur 30 Sudeste 0.2 -- -- 99
2020-03-15 22:00:00 11.3 8 Sur 23 Norte 0.2 -- -- 96
2020-03-15 21:00:00 11.2 11 Sudeste 30 Nordeste 0 -- -- 92
2020-03-15 20:00:00 11.4 6 Sur 25 Este 0 -- -- 97
2020-03-15 19:00:00 11.7 6 Sudeste 22 Este 0 -- -- 93
2020-03-15 18:00:00 11.9 9 Sudeste 24 Sudeste 0 -- -- 92
2020-03-15 17:00:00 13.4 5 Oeste 16 Sudeste 0 -- -- 85
2020-03-15 16:00:00 13 7 Sudeste 15 Este 0 -- -- 87
2020-03-15 15:00:00 14 4 Este 13 Este 0 -- -- 80
2020-03-15 14:00:00 13.9 5 Sudeste 14 Norte 0 -- -- 84
2020-03-15 13:00:00 14.2 4 Sudeste 20 Nordeste 0 -- -- 83
2020-03-15 12:00:00 12.8 5 Sur 20 Sudeste 0 -- -- 86
2020-03-15 11:00:00 12.1 4 Sur 20 Norte 0 -- -- 92
2020-03-15 10:00:00 11.6 4 Sudeste 11 Este 0 -- -- 98
2020-03-15 09:00:00 10.7 4 Sudeste 15 Este 0 -- -- 100
2020-03-15 08:00:00 10.6 5 Sudoeste 13 Nordeste 0.2 -- -- 99
2020-03-15 07:00:00 10.5 3 Nordeste 18 Norte 0 -- -- 98
2020-03-15 06:00:00 10.4 3 Sur 19 Este 0 -- -- 97
2020-03-15 05:00:00 10.8 4 Sur 18 Este 0 -- -- 96
2020-03-15 04:00:00 10.7 6 Sudoeste 14 Sudoeste 0 -- -- 92
2020-03-15 03:00:00 10.9 5 Sur 19 Este 0 -- -- 95
2020-03-15 02:00:00 10.9 6 Sur 17 Sur 0 -- -- 93
2020-03-15 01:00:00 10.7 5 Sudoeste 22 Sur 0 -- -- 92
2020-03-15 00:00:00 10.9 4 Sudoeste 14 Sur 0 -- -- 92
2020-03-14 23:00:00 11.1 5 Sur 14 Sudeste 0 -- -- 92
2020-03-14 22:00:00 11 5 Sudoeste 17 Este 0 -- -- 90
2020-03-14 21:00:00 11.5 4 Sudoeste 12 Sudoeste 0 -- -- 91
2020-03-14 20:00:00 11.6 4 Sudoeste 12 Sur 0 -- -- 90
2020-03-14 19:00:00 12 4 Sudoeste 15 Nordeste 0 -- -- 88
2020-03-14 18:00:00 12.4 6 Sudoeste 17 Sudeste 0 -- -- 88
2020-03-14 17:00:00 13.3 4 Sur 15 Norte 0 -- -- 87
2020-03-14 16:00:00 14.7 4 Este 17 Norte 0 -- -- 75
2020-03-14 15:00:00 16.5 5 Nordeste 14 Este 0 -- -- 68
2020-03-14 14:00:00 15.1 5 Este 15 Sur 0 -- -- 77
2020-03-14 13:00:00 15.4 5 Este 17 Sur 0 -- -- 74
2020-03-14 12:00:00 15.2 6 Este 21 Este 0 -- -- 76
2020-03-14 11:00:00 13.5 4 Norte 15 Nordeste 0 -- -- 87
2020-03-14 10:00:00 12.7 5 Sudeste 17 Norte 0 -- -- 94
2020-03-14 09:00:00 12.1 5 Sur 15 Nordeste 0 -- -- 96
2020-03-14 08:00:00 11.5 4 Sudeste 13 Sudeste 0 -- -- 98
2020-03-14 07:00:00 11.4 4 Sur 10 Este 0 -- -- 98
2020-03-14 06:00:00 11.4 3 Este 14 Sudeste 0 -- -- 98
2020-03-14 05:00:00 11.5 5 Sudeste 12 Este 0 -- -- 98
2020-03-14 04:00:00 11.4 4 Sudeste 12 Este 0 -- -- 97
2020-03-14 03:00:00 11.8 3 Sur 12 Nordeste 0 -- -- 98
2020-03-14 02:00:00 11.7 5 Sur 21 Este 0 -- -- 98
2020-03-14 01:00:00 12 4 Sudeste 12 Este 0 -- -- 98
2020-03-14 00:00:00 12.1 4 Sur 19 Oeste 0 -- -- 98
2020-03-13 23:00:00 12.2 6 Sur 21 Este 0 -- -- 98
2020-03-13 22:00:00 12.4 4 Sudeste 18 Este 0 -- -- 97
2020-03-13 21:00:00 12.3 5 Este 13 Sudeste 0 -- -- 97
2020-03-13 20:00:00 12.4 5 Sudeste 12 Sudeste 0 -- -- 96
2020-03-13 19:00:00 12.5 5 Este 14 Este 0 -- -- 95
2020-03-13 18:00:00 12.8 3 Este 12 Nordeste 0 -- -- 91
2020-03-13 17:00:00 13.3 5 Sur 13 Este 0 -- -- 91
2020-03-13 16:00:00 13.4 4 Este 14 Nordeste 0 -- -- 89
2020-03-13 15:00:00 13.6 3 Norte 11 Nordeste 0 -- -- 89
2020-03-13 14:00:00 13.9 5 Noroeste 13 Norte 0 -- -- 87
2020-03-13 13:00:00 13.8 4 Nordeste 12 Nordeste 0 -- -- 88
2020-03-13 12:00:00 13.6 4 Norte 13 Este 0 -- -- 89
2020-03-13 11:00:00 13.1 4 Sudeste 13 Este 0 -- -- 91
2020-03-13 10:00:00 12.9 5 Sudeste 17 Sudeste 0 -- -- 92
2020-03-13 09:00:00 12.6 3 Sudeste 14 Nordeste 0 -- -- 92
2020-03-13 08:00:00 12.1 3 Sudeste 11 Sur 0 -- -- 94
2020-03-13 07:00:00 12.1 3 Sur 9 Sudoeste 0 -- -- 93
2020-03-13 06:00:00 12 3 Sur 10 Este 0 -- -- 93
2020-03-13 05:00:00 12.1 3 Este 14 Norte 0 -- -- 93
2020-03-13 04:00:00 12.2 3 Este 9 Este 0 -- -- 91
2020-03-13 03:00:00 12.4 4 Sudeste 11 Norte 0 -- -- 92
2020-03-13 02:00:00 12.5 0 Calma 14 Nordeste 0 -- -- 90
2020-03-13 01:00:00 12.7 4 Sudeste 11 Sudoeste 0 -- -- 61
2020-03-13 00:00:00 12.9 2 Nordeste 10 Norte 0 -- -- 90
2020-03-12 23:00:00 13.3 5 Nordeste 13 Norte 0 -- -- 95
2020-03-12 22:00:00 12.9 9 Norte 15 Nordeste 0 -- -- 93
2020-03-12 21:00:00 15.3 9 Sudoeste 14 Oeste 0 -- -- 30
2020-03-12 20:00:00 13.2 4 Noroeste 12 Oeste 0 -- -- 82
2020-03-12 19:00:00 15.5 0 Calma 6 Norte 0 -- -- 86
2020-03-12 18:00:00 19.3 2 Sudeste 6 Sur 0 -- -- 71
2020-03-12 17:00:00 23.1 3 Sudoeste 11 Sudeste 0 -- -- 58
2020-03-12 16:00:00 25 6 Sudeste 15 Sudeste 0 -- -- 50
2020-03-12 15:00:00 24.4 8 Sudeste 17 Sudeste 0 -- -- 51
2020-03-12 14:00:00 26 7 Sudeste 16 Sur 0 -- -- 46
2020-03-12 13:00:00 27.6 10 Sudeste 28 Sur 0 -- -- 31
2020-03-12 12:00:00 25.5 17 Sur 26 Sur 0 -- -- 27
2020-03-12 11:00:00 -- -- -- -- -- -- -- -- --
2020-03-12 10:00:00 23.5 8 Sur 13 Sur 0 -- -- 19
2020-03-12 09:00:00 19.9 4 Sudoeste 12 Sudoeste 0 -- -- 16
2020-03-12 08:00:00 17.3 6 Sur 13 Sudoeste 0 -- -- 15
2020-03-12 07:00:00 17 7 Sudoeste 15 Sudoeste 0 -- -- 18
2020-03-12 06:00:00 17 9 Sudoeste 15 Sudoeste 0 -- -- 19
2020-03-12 05:00:00 17.1 8 Sudoeste 17 Sudoeste 0 -- -- 21
2020-03-12 04:00:00 17.2 3 Sur 12 Sudoeste 0 -- -- 22
2020-03-12 03:00:00 17.3 4 Sudoeste 13 Sur 0 -- -- 22
2020-03-12 02:00:00 17.5 3 Este 12 Nordeste 0 -- -- 23
2020-03-12 01:00:00 17.8 3 Norte 13 Sudoeste 0 -- -- 20
2020-03-12 00:00:00 17.8 8 Sudoeste 12 Sudoeste 0 -- -- 15
2020-03-11 23:00:00 18.1 8 Sudoeste 13 Sudoeste 0 -- -- 14
2020-03-11 22:00:00 18.6 4 Sudoeste 12 Sudoeste 0 -- -- 14
2020-03-11 21:00:00 18.2 9 Sudoeste 18 Sudoeste 0 -- -- 15
2020-03-11 20:00:00 18.9 14 Sudoeste 19 Sur 0 -- -- 17
2020-03-11 19:00:00 21.6 11 Sur 21 Sur 0 -- -- 18
2020-03-11 18:00:00 23.8 13 Sur 24 Sur 0 -- -- 16
2020-03-11 17:00:00 25.1 12 Sur 22 Sudoeste 0 -- -- 17
2020-03-11 16:00:00 24.8 9 Sur 28 Sur 0 -- -- 17
2020-03-11 15:00:00 23.4 17 Sur 26 Sudoeste 0 -- -- 19
2020-03-11 14:00:00 25.9 16 Sur 35 Sudeste 0 -- -- 17
2020-03-11 13:00:00 25.6 19 Sur 37 Sudeste 0 -- -- 14
2020-03-11 12:00:00 24.9 15 Sudeste 31 Sudeste 0 -- -- 12
2020-03-11 11:00:00 24.9 17 Sur 28 Sur 0 -- -- 10
2020-03-11 10:00:00 21.9 18 Sur 23 Sur 0 -- -- 11
2020-03-11 09:00:00 18.8 14 Sudoeste 18 Sudoeste 0 -- -- 14
2020-03-11 08:00:00 18 13 Sudoeste 19 Sudoeste 0 -- -- 11
2020-03-11 07:00:00 19.3 10 Sudoeste 16 Sudoeste 0 -- -- 12
2020-03-11 06:00:00 18.9 12 Sudoeste 15 Sudoeste 0 -- -- 13
2020-03-11 05:00:00 16.6 0 Calma 7 Sur 0 -- -- 11
2020-03-11 04:00:00 17 3 Sudeste 10 Sur 0 -- -- 12
2020-03-11 03:00:00 16.8 4 Sur 11 Sudoeste 0 -- -- 9
2020-03-11 02:00:00 15.9 5 Sudeste 13 Sudoeste 0 -- -- 18
2020-03-11 01:00:00 16.5 8 Sudoeste 15 Sudoeste 0 -- -- 7
2020-03-11 00:00:00 17.4 6 Sudoeste 13 Sudoeste 0 -- -- 5
2020-03-10 23:00:00 17.2 9 Sudoeste 18 Sudoeste 0 -- -- 5
2020-03-10 22:00:00 17.5 4 Sudoeste 14 Nordeste 0 -- -- 5
2020-03-10 21:00:00 18.4 5 Este 14 Nordeste 0 -- -- 5
2020-03-10 20:00:00 18.6 8 Nordeste 14 Este 0 -- -- 6
2020-03-10 19:00:00 19.4 4 Sudeste 12 Este 0 -- -- 13
2020-03-10 18:00:00 22.2 5 Este 12 Este 0 -- -- 13
2020-03-10 17:00:00 23.1 4 Sur 12 Sudeste 0 -- -- 15
2020-03-10 16:00:00 23.5 3 Este 11 Sudeste 0 -- -- 25
2020-03-10 15:00:00 24.6 4 Nordeste 15 Sur 0 -- -- 35
2020-03-10 14:00:00 27.6 6 Sudeste 18 Sur 0 -- -- 16
2020-03-10 13:00:00 27 6 Sur 18 Sur 0 -- -- 18
2020-03-10 12:00:00 25.6 5 Sur 12 Sur 0 -- -- 20
2020-03-10 11:00:00 25 5 Sudeste 15 Sudeste 0 -- -- 19
2020-03-10 10:00:00 22.7 4 Sur 12 Sur 0 -- -- 19
2020-03-10 09:00:00 19.5 5 Sudeste 17 Sudoeste 0 -- -- 24
2020-03-10 08:00:00 15.9 10 Sudoeste 15 Sudoeste 0 -- -- 27
2020-03-10 07:00:00 15.5 5 Sur 20 Sudoeste 0 -- -- 28
2020-03-10 06:00:00 15.6 6 Sur 15 Sudoeste 0 -- -- 30
2020-03-10 05:00:00 14.7 5 Sudoeste 10 Sudoeste 0 -- -- 34
2020-03-10 04:00:00 15 4 Oeste 9 Sudoeste 0 -- -- 33
2020-03-10 03:00:00 14.5 3 Sudoeste 13 Sudoeste 0 -- -- 39
2020-03-10 02:00:00 14.3 2 Nordeste 9 Nordeste 0 -- -- 46
2020-03-10 01:00:00 14.7 5 Nordeste 14 Nordeste 0 -- -- 45
2020-03-10 00:00:00 15.6 3 Este 18 Este 0 -- -- 37
2020-03-09 23:00:00 15.3 5 Este 15 Nordeste 0 -- -- 53
2020-03-09 22:00:00 16 4 Nordeste 9 Nordeste 0 -- -- 43
2020-03-09 21:00:00 15.1 4 Oeste 11 Nordeste 0 -- -- 62
2020-03-09 20:00:00 14.1 6 Norte 12 Norte 0 -- -- 88
2020-03-09 19:00:00 19.1 9 Sur 18 Sur 0 -- -- 33
2020-03-09 18:00:00 21.2 11 Sur 23 Sur 0 -- -- 34
2020-03-09 17:00:00 22.4 13 Sur 23 Sur 0 -- -- 33
2020-03-09 16:00:00 22.7 10 Sudeste 17 Sudeste 0 -- -- 60
2020-03-09 15:00:00 23.8 13 Sudeste 32 Sur 0 -- -- 58
2020-03-09 14:00:00 23.4 17 Sudeste 31 Sur 0 -- -- 41
2020-03-09 13:00:00 21.6 12 Sudeste 19 Sudeste 0 -- -- 63
2020-03-09 12:00:00 21.3 10 Sudeste 17 Sudeste 0 -- -- 65
2020-03-09 11:00:00 18.7 8 Sur 17 Sur 0 -- -- 76
2020-03-09 10:00:00 15.3 4 Norte 10 Sudeste 0 -- -- 90
2020-03-09 09:00:00 13 3 Este 12 Nordeste 0 -- -- 97
2020-03-09 08:00:00 12.8 4 Noroeste 12 Nordeste 0 -- -- 96
2020-03-09 07:00:00 12.7 2 Sudoeste 13 Norte 0 -- -- 94
2020-03-09 06:00:00 13.9 3 Este 24 Sudoeste 0 -- -- 57
2020-03-09 05:00:00 14 11 Sudeste 29 Este 0 -- -- 46
2020-03-09 04:00:00 11.5 5 Norte 21 Este 0 -- -- 93
2020-03-09 03:00:00 11.8 4 Norte 17 Noroeste 0 -- -- 96
2020-03-09 02:00:00 12.4 3 Sur 13 Este 0 -- -- 95
2020-03-09 01:00:00 12.7 6 Sudeste 14 Sur 0 -- -- 97
2020-03-09 00:00:00 13 5 Este 12 Norte 0 -- -- 98
2020-03-08 23:00:00 13.2 4 Nordeste 18 Norte 0 -- -- 98
2020-03-08 22:00:00 13.3 3 Sudoeste 14 Norte 0 -- -- 98
2020-03-08 21:00:00 13.8 5 Norte 12 Norte 0 -- -- 97
2020-03-08 20:00:00 14 2 Nordeste 12 Nordeste 0 -- -- 95
2020-03-08 19:00:00 14.5 3 Este 12 Nordeste 0 -- -- 93
2020-03-08 18:00:00 16.3 3 Norte 11 Norte 0 -- -- 85
2020-03-08 17:00:00 20.2 4 Sudeste 17 Sudeste 0 -- -- 70
2020-03-08 16:00:00 22 11 Sudeste 24 Sudeste 0 -- -- 60
2020-03-08 15:00:00 22.3 9 Sudeste 23 Sudeste 0 -- -- 62
2020-03-08 14:00:00 20.1 9 Sudeste 17 Sudeste 0 -- -- 70
2020-03-08 13:00:00 19.9 8 Sudeste 18 Sur 0 -- -- 72
2020-03-08 12:00:00 17.6 10 Sudeste 19 Sudeste 0 -- -- 77
2020-03-08 11:00:00 14.1 7 Sudeste 15 Sudeste 0 -- -- 92
2020-03-08 10:00:00 12.7 4 Sudeste 15 Sudeste 0 -- -- 96
2020-03-08 09:00:00 12.1 4 Sudeste 11 Sudeste 0 -- -- 99
2020-03-08 08:00:00 11.7 3 Sur 9 Este 0 -- -- 99
2020-03-08 07:00:00 11.7 2 Este 10 Nordeste 0 -- -- 99
2020-03-08 06:00:00 11.7 3 Sur 10 Este 0 -- -- 98
2020-03-08 05:00:00 11.6 5 Sudeste 12 Este 0 -- -- 97
2020-03-08 04:00:00 11.5 4 Sudeste 15 Sudeste 0 -- -- 97
2020-03-08 03:00:00 11.6 4 Sudoeste 10 Sudeste 0 -- -- 97
2020-03-08 02:00:00 11.6 3 Sur 10 Sudoeste 0 -- -- 97
2020-03-08 01:00:00 11.5 4 Sudeste 14 Sudeste 0 -- -- 96
2020-03-08 00:00:00 11.6 4 Sudeste 15 Sudeste 0 -- -- 96
2020-03-07 23:00:00 11.6 5 Sudeste 13 Nordeste 0 -- -- 95
2020-03-07 22:00:00 11.7 5 Sudeste 17 Nordeste 0 -- -- 95
2020-03-07 21:00:00 11.8 5 Sur 17 Sudeste 0 -- -- 96
2020-03-07 20:00:00 11.8 3 Sudeste 15 Este 0 -- -- 96
2020-03-07 19:00:00 12 5 Sudeste 22 Este 0 -- -- 95
2020-03-07 18:00:00 12.4 5 Sudeste 15 Este 0 -- -- 93
2020-03-07 17:00:00 13 5 Sur 12 Este 0 -- -- 90
2020-03-07 16:00:00 14 4 Sudeste 15 Sudeste 0 -- -- 81
2020-03-07 15:00:00 13.9 6 Sudoeste 15 Este 0 -- -- 83
2020-03-07 14:00:00 13.7 5 Nordeste 17 Sudeste 0 -- -- 80
2020-03-07 13:00:00 14.3 4 Sur 17 Sudeste 0 -- -- 78
2020-03-07 12:00:00 13.1 5 Sudeste 18 Este 0 -- -- 83
2020-03-07 11:00:00 12.1 5 Sudeste 18 Este 0 -- -- 94
2020-03-07 10:00:00 12.2 8 Sudeste 17 Sudeste 0 -- -- 89
2020-03-07 09:00:00 11.2 7 Sudeste 19 Este 0 -- -- 94
2020-03-07 08:00:00 10.9 6 Sudeste 17 Este 0 -- -- 95
2020-03-07 07:00:00 10.9 6 Sur 17 Este 0 -- -- 94
2020-03-07 06:00:00 10.8 7 Sur 17 Sudeste 0 -- -- 96
2020-03-07 05:00:00 10.8 6 Sudeste 16 Este 0 -- -- 94
2020-03-07 04:00:00 10.7 3 Sudeste 21 Este 0 -- -- 94
2020-03-07 03:00:00 10.7 4 Sudeste 20 Norte 0 -- -- 92
2020-03-07 02:00:00 10.7 5 Sur 21 Este 0 -- -- 92
2020-03-07 01:00:00 10.7 5 Sur 14 Sur 0 -- -- 93
2020-03-07 00:00:00 10.7 8 Sur 23 Este 0 -- -- 92
2020-03-06 23:00:00 10.9 9 Este 26 Este 0 -- -- 93
2020-03-06 22:00:00 10.8 8 Sudeste 26 Este 0 -- -- 92
2020-03-06 21:00:00 11.1 8 Sur 23 Sudeste 0 -- -- 95
2020-03-06 20:00:00 11.4 8 Sudeste 24 Este 0 -- -- 95
2020-03-06 19:00:00 11.4 8 Sur 27 Sudeste 0 -- -- 92
2020-03-06 18:00:00 12.1 9 Sur 20 Sudeste 0 -- -- 90
2020-03-06 17:00:00 12.3 9 Sur 24 Sudeste 0 -- -- 93
2020-03-06 16:00:00 12.3 7 Sur 19 Este 0 -- -- 91
2020-03-06 15:00:00 12.3 8 Sudeste 20 Sudeste 0 -- -- 89
2020-03-06 14:00:00 12.5 9 Sudeste 23 Sur 0 -- -- 94
2020-03-06 13:00:00 12.1 9 Sur 24 Sudeste 0 -- -- 90
2020-03-06 12:00:00 11.9 9 Sudeste 26 Este 0 -- -- 99
2020-03-06 11:00:00 11.9 11 Sudeste 32 Sudeste 0 -- -- 100
2020-03-06 10:00:00 10.9 11 Sur 30 Sudeste 0 -- -- 100
2020-03-06 09:00:00 11 11 Sudeste 26 Sudeste 0 -- -- 100
2020-03-06 08:00:00 10.9 9 Sur 26 Sudeste 0 -- -- 100
2020-03-06 07:00:00 11.7 10 Sur 33 Nordeste 0 -- -- 100
2020-03-06 06:00:00 12.3 9 Sudeste 26 Sudeste 0.2 -- -- 100
2020-03-06 05:00:00 12.8 7 Sudeste 27 Este 0.2 -- -- 100
2020-03-06 04:00:00 13 9 Sur 25 Nordeste 0.4 -- -- 100
2020-03-06 03:00:00 13 6 Sudeste 20 Este 0 -- -- 100
2020-03-06 02:00:00 12.7 7 Sudeste 35 Nordeste 0 -- -- 99
2020-03-06 01:00:00 12.6 9 Este 31 Nordeste 0 -- -- 99
2020-03-06 00:00:00 12.5 9 Este 27 Este 0 -- -- 98
2020-03-05 23:00:00 12.3 8 Sudeste 26 Nordeste 0 -- -- 97
2020-03-05 22:00:00 12.1 8 Este 25 Sudeste 0 -- -- 97
2020-03-05 21:00:00 12.2 6 Sur 19 Nordeste 0 -- -- 97
2020-03-05 20:00:00 12.4 6 Sur 19 Este 0 -- -- 97
2020-03-05 19:00:00 12.6 6 Sudeste 14 Sur 0 -- -- 96
2020-03-05 18:00:00 13.3 5 Sur 18 Sudeste 0 -- -- 94
2020-03-05 17:00:00 13.9 4 Este 14 Nordeste 0 -- -- 91
2020-03-05 16:00:00 15.1 6 Sudeste 14 Este 0 -- -- 88
2020-03-05 15:00:00 16.3 4 Sudeste 15 Sudeste 0 -- -- 79
2020-03-05 14:00:00 15.5 7 Sudeste 17 Sur 0 -- -- 85
2020-03-05 13:00:00 15.7 5 Sudoeste 14 Sudeste 0 -- -- 84
2020-03-05 12:00:00 15.3 5 Sudeste 16 Sudeste 0 -- -- 86
2020-03-05 11:00:00 16.2 6 Sudeste 19 Sudeste 0 -- -- 83
2020-03-05 10:00:00 15.1 6 Sudeste 13 Sudeste 0 -- -- 90
2020-03-05 09:00:00 13.1 4 Sudeste 13 Sudeste 0 -- -- 99
2020-03-05 08:00:00 12.6 7 Sudeste 12 Sudeste 0 -- -- 99
2020-03-05 07:00:00 12.6 3 Sudeste 10 Este 0 -- -- 98
2020-03-05 06:00:00 12.6 4 Sudeste 17 Nordeste 0 -- -- 98
2020-03-05 05:00:00 12.7 3 Sur 13 Nordeste 0 -- -- 97
2020-03-05 04:00:00 12.7 4 Este 12 Nordeste 0 -- -- 96
2020-03-05 03:00:00 13.2 3 Sudeste 13 Nordeste 0 -- -- 97
2020-03-05 02:00:00 13.3 3 Nordeste 14 Nordeste 0 -- -- 93
2020-03-05 01:00:00 17.5 3 Nordeste 12 Sudoeste 0 -- -- 43
2020-03-05 00:00:00 17.2 3 Oeste 13 Sur 0 -- -- 39
2020-03-04 23:00:00 14.5 4 Nordeste 20 Sudoeste 0 -- -- 57
2020-03-04 22:00:00 12.9 6 Norte 14 Norte 0 -- -- 86
2020-03-04 21:00:00 13.4 3 Nordeste 11 Nordeste 0 -- -- 93
2020-03-04 20:00:00 14.7 5 Norte 11 Norte 0 -- -- 92
2020-03-04 19:00:00 15.6 7 Norte 12 Norte 0 -- -- 89
2020-03-04 18:00:00 27.5 4 Norte 9 Noroeste 0 -- -- 24
2020-03-04 17:00:00 26.9 5 Norte 9 Norte 0 -- -- 33
2020-03-04 16:00:00 25 3 Norte 8 Noroeste 0 -- -- 37
2020-03-04 15:00:00 24.3 3 Norte 9 Sudeste 0 -- -- 46
2020-03-04 14:00:00 22.7 4 Sudeste 15 Sur 0 -- -- 59
2020-03-04 13:00:00 21.6 9 Sudeste 15 Sur 0 -- -- 64
2020-03-04 12:00:00 20.4 8 Sur 15 Sur 0 -- -- 69
2020-03-04 11:00:00 18.6 7 Sudeste 13 Sur 0 -- -- 77
2020-03-04 10:00:00 15.3 3 Este 12 Norte 0 -- -- 100
2020-03-04 09:00:00 13.2 3 Norte 12 Nordeste 0 -- -- 100
2020-03-04 08:00:00 12.4 5 Norte 12 Norte 0 -- -- 100
2020-03-04 07:00:00 12.4 2 Nordeste 11 Norte 0 -- -- 100
2020-03-04 06:00:00 12.4 5 Norte 14 Norte 0 -- -- 100
2020-03-04 05:00:00 12.5 3 Norte 14 Norte 0 -- -- 100
2020-03-04 04:00:00 12.6 5 Norte 13 Norte 0 -- -- 100
2020-03-04 03:00:00 12.7 5 Norte 14 Norte 0 -- -- 100
2020-03-04 02:00:00 12.8 2 Nordeste 10 Norte 0 -- -- 100
2020-03-04 01:00:00 12.6 3 Norte 9 Norte 0 -- -- 99
2020-03-04 00:00:00 12.7 0 Calma 9 Sudeste 0 -- -- 99